createdAt,value
2023-05-21T00:00:12.036Z,59.58
2023-05-21T00:01:16.362Z,59.54
2023-05-21T00:02:19.082Z,59.77
2023-05-21T00:03:21.224Z,59.70
2023-05-21T00:04:22.876Z,59.80
2023-05-21T00:05:24.658Z,60.13
2023-05-21T00:06:26.849Z,59.81
2023-05-21T00:07:28.669Z,59.97
2023-05-21T00:08:30.422Z,59.76
2023-05-21T00:09:32.111Z,60.06
2023-05-21T00:10:33.710Z,60.14
2023-05-21T00:11:36.262Z,59.94
2023-05-21T00:12:37.841Z,59.95
2023-05-21T00:13:39.667Z,59.89
2023-05-21T00:14:41.436Z,60.03
2023-05-21T00:15:43.169Z,60.09
2023-05-21T00:16:47.333Z,59.97
2023-05-21T00:17:49.031Z,60.04
2023-05-21T00:18:50.712Z,60.16
2023-05-21T00:19:52.447Z,59.93
2023-05-21T00:20:54.475Z,60.08
2023-05-21T00:21:56.693Z,60.03
2023-05-21T00:22:59.367Z,59.89
2023-05-21T00:24:00.921Z,60.13
2023-05-21T00:25:02.864Z,60.17
2023-05-21T00:26:04.429Z,60.29
2023-05-21T00:27:06.377Z,60.20
2023-05-21T00:28:08.046Z,60.08
2023-05-21T00:29:09.561Z,60.38
2023-05-21T00:30:11.499Z,60.24
2023-05-21T00:31:13.317Z,60.14
2023-05-21T00:32:15.198Z,60.37
2023-05-21T00:33:17.264Z,60.38
2023-05-21T00:34:19.126Z,60.42
2023-05-21T00:35:20.979Z,60.44
2023-05-21T00:36:34.774Z,60.47
2023-05-21T00:37:36.650Z,60.48
2023-05-21T00:38:38.296Z,60.94
2023-05-21T00:39:39.825Z,60.59
2023-05-21T00:40:41.783Z,60.46
2023-05-21T00:41:43.411Z,60.50
2023-05-21T00:42:47.985Z,60.59
2023-05-21T00:43:49.517Z,60.51
2023-05-21T00:44:51.015Z,60.40
2023-05-21T00:45:53.849Z,60.70
2023-05-21T00:46:55.615Z,60.58
2023-05-21T00:47:57.379Z,60.65
2023-05-21T00:48:59.205Z,60.51
2023-05-21T00:50:02.850Z,60.69
2023-05-21T00:51:05.603Z,60.75
2023-05-21T00:52:07.895Z,60.98
2023-05-21T00:53:10.076Z,61.10
2023-05-21T00:54:12.089Z,61.01
2023-05-21T00:55:13.759Z,60.80
2023-05-21T00:56:17.520Z,60.67
2023-05-21T00:57:23.081Z,60.98
2023-05-21T00:58:25.182Z,60.77
2023-05-21T00:59:26.741Z,60.90
2023-05-21T01:00:28.430Z,60.97
2023-05-21T01:01:34.101Z,61.04
2023-05-21T01:02:37.245Z,61.04
2023-05-21T01:03:40.959Z,60.91
2023-05-21T01:04:43.030Z,61.03
2023-05-21T01:05:45.198Z,60.93
2023-05-21T01:06:47.097Z,60.92
2023-05-21T01:07:48.750Z,61.06
2023-05-21T01:08:50.959Z,61.03
2023-05-21T01:09:54.261Z,61.02
2023-05-21T01:10:57.557Z,61.12
2023-05-21T01:12:00.971Z,61.20
2023-05-21T01:13:02.728Z,60.91
2023-05-21T01:14:05.590Z,61.18
2023-05-21T01:15:07.711Z,61.18
2023-05-21T01:16:13.140Z,61.39
2023-05-21T01:17:15.664Z,61.39
2023-05-21T01:18:20.144Z,61.43
2023-05-21T01:19:24.563Z,61.49
2023-05-21T01:20:28.531Z,61.24
2023-05-21T01:21:30.800Z,61.44
2023-05-21T01:22:35.250Z,61.38
2023-05-21T01:23:37.052Z,61.40
2023-05-21T01:24:38.555Z,61.31
2023-05-21T01:25:42.290Z,61.45
2023-05-21T01:26:44.357Z,61.67
2023-05-21T01:27:45.949Z,61.75
2023-05-21T01:28:48.040Z,61.37
2023-05-21T01:29:49.657Z,61.67
2023-05-21T01:30:51.363Z,61.35
2023-05-21T01:32:05.202Z,61.62
2023-05-21T01:33:17.516Z,61.68
2023-05-21T01:34:23.942Z,61.68
2023-05-21T01:35:31.127Z,61.73
2023-05-21T01:36:40.898Z,61.75
2023-05-21T01:37:51.587Z,61.86
2023-05-21T01:39:20.453Z,61.99
2023-05-21T01:40:39.907Z,62.17
2023-05-21T01:41:45.046Z,62.05
2023-05-21T01:42:47.576Z,62.31
2023-05-21T01:43:49.170Z,62.21
2023-05-21T01:44:53.684Z,62.13
2023-05-21T01:45:57.268Z,62.38
2023-05-21T01:47:00.345Z,62.27
2023-05-21T01:48:03.536Z,62.40
2023-05-21T01:49:06.351Z,62.30
2023-05-21T01:50:09.557Z,62.21
2023-05-21T01:51:12.068Z,62.14
2023-05-21T01:52:13.933Z,62.20
2023-05-21T01:53:15.817Z,62.46
2023-05-21T01:54:17.411Z,62.31
2023-05-21T01:55:24.725Z,62.44
2023-05-21T01:56:28.889Z,62.38
2023-05-21T01:57:30.459Z,62.51
2023-05-21T01:58:32.007Z,62.65
2023-05-21T01:59:33.977Z,62.59
2023-05-21T02:00:37.538Z,62.64
2023-05-21T02:01:39.093Z,62.43
2023-05-21T02:02:40.751Z,62.54
2023-05-21T02:03:42.531Z,62.52
2023-05-21T02:04:45.803Z,62.56
2023-05-21T02:05:47.517Z,62.72
2023-05-21T02:06:49.336Z,62.56
2023-05-21T02:07:52.133Z,62.67
2023-05-21T02:08:53.573Z,62.97
2023-05-21T02:09:55.069Z,63.10
2023-05-21T02:10:56.962Z,63.23
2023-05-21T02:11:59.281Z,63.37
2023-05-21T02:13:01.661Z,63.31
2023-05-21T02:14:04.033Z,63.51
2023-05-21T02:15:06.343Z,63.25
2023-05-21T02:16:12.098Z,63.30
2023-05-21T02:17:14.350Z,63.53
2023-05-21T02:18:16.807Z,63.93
2023-05-21T02:19:18.820Z,63.93
2023-05-21T02:20:22.339Z,63.87
2023-05-21T02:21:23.975Z,64.05
2023-05-21T02:22:25.671Z,63.93
2023-05-21T02:23:27.193Z,64.24
2023-05-21T02:24:29.203Z,64.24
2023-05-21T02:25:30.781Z,64.50
2023-05-21T02:26:32.758Z,64.39
2023-05-21T02:27:36.655Z,64.63
2023-05-21T02:28:38.632Z,64.70
2023-05-21T02:29:40.153Z,64.61
2023-05-21T02:30:41.712Z,64.71
2023-05-21T02:31:43.650Z,64.82
2023-05-21T02:32:45.354Z,64.85
2023-05-21T02:33:46.902Z,64.82
2023-05-21T02:34:48.411Z,65.09
2023-05-21T02:35:49.926Z,64.88
2023-05-21T02:36:54.791Z,65.14
2023-05-21T02:37:59.353Z,65.09
2023-05-21T02:39:01.729Z,65.33
2023-05-21T02:40:06.058Z,65.35
2023-05-21T02:41:07.663Z,65.15
2023-05-21T02:42:09.188Z,65.17
2023-05-21T02:43:10.687Z,65.23
2023-05-21T02:44:12.249Z,65.54
2023-05-21T02:45:13.811Z,65.07
2023-05-21T02:46:15.438Z,65.37
2023-05-21T02:47:17.866Z,65.65
2023-05-21T02:48:19.353Z,65.70
2023-05-21T02:49:21.652Z,65.52
2023-05-21T02:50:23.596Z,65.79
2023-05-21T02:51:25.471Z,66.14
2023-05-21T02:52:27.157Z,66.13
2023-05-21T02:53:28.692Z,66.11
2023-05-21T02:54:30.325Z,66.22
2023-05-21T02:55:31.840Z,66.28
2023-05-21T02:56:33.657Z,66.09
2023-05-21T02:57:35.269Z,66.32
2023-05-21T02:58:36.817Z,66.26
2023-05-21T02:59:38.426Z,66.27
2023-05-21T03:00:39.950Z,66.14
2023-05-21T03:01:41.539Z,66.42
2023-05-21T03:02:43.493Z,66.66
2023-05-21T03:03:45.172Z,66.39
2023-05-21T03:04:46.851Z,66.78
2023-05-21T03:05:48.460Z,66.77
2023-05-21T03:06:54.913Z,66.96
2023-05-21T03:07:56.810Z,66.83
2023-05-21T03:08:58.282Z,66.81
2023-05-21T03:09:59.913Z,66.80
2023-05-21T03:11:01.896Z,66.79
2023-05-21T03:12:03.605Z,66.91
2023-05-21T03:13:08.201Z,67.12
2023-05-21T03:14:12.012Z,67.12
2023-05-21T03:15:14.940Z,67.25
2023-05-21T03:16:17.967Z,67.40
2023-05-21T03:17:20.776Z,67.18
2023-05-21T03:18:22.671Z,67.25
2023-05-21T03:19:24.923Z,67.61
2023-05-21T03:20:28.028Z,67.63
2023-05-21T03:21:32.766Z,67.49
2023-05-21T03:22:34.347Z,67.61
2023-05-21T03:23:35.831Z,67.55
2023-05-21T03:24:41.422Z,67.81
2023-05-21T03:25:43.398Z,67.46
2023-05-21T03:26:44.882Z,67.67
2023-05-21T03:27:46.388Z,67.70
2023-05-21T03:28:48.005Z,67.66
2023-05-21T03:29:50.164Z,67.67
2023-05-21T03:30:52.430Z,67.71
2023-05-21T03:31:54.678Z,67.98
2023-05-21T03:32:56.491Z,67.78
2023-05-21T03:33:58.016Z,67.76
2023-05-21T03:35:00.126Z,67.87
2023-05-21T03:36:02.067Z,67.82
2023-05-21T03:37:03.631Z,68.02
2023-05-21T03:38:05.132Z,68.22
2023-05-21T03:39:06.984Z,68.20
2023-05-21T03:40:09.254Z,68.22
2023-05-21T03:41:11.762Z,68.07
2023-05-21T03:42:14.329Z,68.23
2023-05-21T03:43:15.889Z,68.09
2023-05-21T03:44:17.447Z,67.98
2023-05-21T03:45:19.061Z,67.93
2023-05-21T03:46:21.008Z,68.56
2023-05-21T03:47:22.580Z,68.09
2023-05-21T03:48:24.135Z,68.43
2023-05-21T03:49:26.796Z,68.31
2023-05-21T03:50:28.331Z,68.39
2023-05-21T03:51:32.043Z,68.23
2023-05-21T03:52:33.545Z,68.22
2023-05-21T03:53:35.584Z,68.53
2023-05-21T03:54:37.216Z,68.35
2023-05-21T03:55:38.741Z,68.18
2023-05-21T03:56:40.304Z,68.65
2023-05-21T03:57:43.055Z,68.67
2023-05-21T03:58:44.671Z,68.78
2023-05-21T03:59:46.223Z,68.73
2023-05-21T04:00:48.361Z,68.75
2023-05-21T04:01:49.923Z,68.74
2023-05-21T04:02:51.807Z,68.58
2023-05-21T04:03:53.577Z,68.49
2023-05-21T04:04:56.046Z,68.62
2023-05-21T04:05:57.734Z,68.61
2023-05-21T04:06:59.696Z,68.72
2023-05-21T04:08:01.195Z,68.80
2023-05-21T04:09:02.762Z,68.72
2023-05-21T04:10:04.894Z,68.79
2023-05-21T04:11:06.784Z,68.80
2023-05-21T04:12:08.608Z,68.65
2023-05-21T04:13:10.150Z,68.92
2023-05-21T04:14:11.745Z,68.95
2023-05-21T04:15:14.783Z,69.18
2023-05-21T04:16:19.235Z,68.95
2023-05-21T04:17:21.755Z,68.82
2023-05-21T04:18:26.143Z,68.65
2023-05-21T04:19:27.730Z,68.64
2023-05-21T04:20:29.683Z,68.61
2023-05-21T04:21:32.211Z,68.86
2023-05-21T04:22:33.824Z,68.65
2023-05-21T04:23:36.813Z,68.64
2023-05-21T04:24:38.698Z,68.92
2023-05-21T04:25:40.593Z,69.12
2023-05-21T04:26:42.379Z,69.04
2023-05-21T04:27:47.758Z,69.10
2023-05-21T04:28:50.473Z,69.05
2023-05-21T04:29:52.114Z,69.00
2023-05-21T04:30:54.020Z,68.95
2023-05-21T04:31:56.175Z,69.19
2023-05-21T04:32:58.112Z,69.12
2023-05-21T04:33:59.811Z,69.19
2023-05-21T04:35:02.258Z,69.22
2023-05-21T04:36:03.932Z,69.16
2023-05-21T04:37:05.423Z,69.24
2023-05-21T04:38:06.943Z,69.16
2023-05-21T04:39:08.446Z,69.04
2023-05-21T04:40:10.335Z,69.00
2023-05-21T04:41:14.255Z,68.69
2023-05-21T04:42:15.958Z,68.61
2023-05-21T04:43:17.674Z,68.62
2023-05-21T04:44:19.632Z,68.69
2023-05-21T04:45:21.280Z,68.68
2023-05-21T04:46:25.407Z,68.55
2023-05-21T04:47:30.401Z,68.71
2023-05-21T04:48:32.047Z,68.68
2023-05-21T04:49:35.018Z,68.71
2023-05-21T04:50:36.547Z,68.71
2023-05-21T04:51:38.129Z,68.61
2023-05-21T04:52:40.336Z,68.93
2023-05-21T04:53:42.597Z,68.97
2023-05-21T04:54:45.835Z,68.79
2023-05-21T04:55:47.430Z,68.94
2023-05-21T04:56:49.059Z,68.45
2023-05-21T04:57:51.123Z,68.30
2023-05-21T04:58:54.281Z,68.11
2023-05-21T04:59:57.926Z,68.07
2023-05-21T05:01:03.294Z,68.06
2023-05-21T05:02:05.520Z,68.17
2023-05-21T05:03:07.160Z,68.10
2023-05-21T05:04:09.027Z,68.32
2023-05-21T05:05:10.727Z,67.98
2023-05-21T05:06:12.300Z,68.02
2023-05-21T05:07:14.945Z,68.07
2023-05-21T05:08:17.097Z,68.14
2023-05-21T05:09:19.265Z,68.09
2023-05-21T05:10:20.854Z,68.10
2023-05-21T05:11:22.693Z,67.79
2023-05-21T05:12:24.224Z,67.85
2023-05-21T05:13:26.209Z,67.97
2023-05-21T05:14:27.796Z,67.75
2023-05-21T05:15:29.618Z,67.57
2023-05-21T05:16:31.220Z,67.46
2023-05-21T05:17:32.798Z,67.04
2023-05-21T05:18:35.248Z,67.14
2023-05-21T05:19:36.792Z,67.07
2023-05-21T05:20:38.647Z,67.22
2023-05-21T05:21:40.162Z,66.86
2023-05-21T05:22:41.686Z,67.03
2023-05-21T05:23:43.172Z,66.66
2023-05-21T05:24:44.988Z,66.44
2023-05-21T05:25:46.862Z,66.48
2023-05-21T05:26:48.432Z,66.27
2023-05-21T05:27:49.959Z,66.28
2023-05-21T05:28:51.585Z,66.08
2023-05-21T05:29:53.121Z,65.98
2023-05-21T05:30:54.624Z,65.59
2023-05-21T05:31:56.123Z,65.80
2023-05-21T05:32:57.676Z,65.66
2023-05-21T05:33:59.372Z,66.05
2023-05-21T05:35:02.357Z,65.69
2023-05-21T05:36:04.412Z,65.89
2023-05-21T05:37:05.909Z,65.88
2023-05-21T05:38:08.956Z,65.63
2023-05-21T05:39:11.000Z,65.53
2023-05-21T05:40:12.678Z,64.91
2023-05-21T05:41:14.177Z,65.05
2023-05-21T05:42:15.674Z,64.85
2023-05-21T05:43:17.257Z,64.75
2023-05-21T05:44:19.090Z,64.76
2023-05-21T05:45:20.968Z,64.93
2023-05-21T05:46:22.656Z,64.87
2023-05-21T05:47:24.346Z,64.67
2023-05-21T05:48:26.033Z,64.45
2023-05-21T05:49:27.834Z,64.18
2023-05-21T05:50:29.421Z,64.43
2023-05-21T05:51:30.918Z,64.42
2023-05-21T05:52:32.467Z,64.11
2023-05-21T05:53:34.063Z,64.16
2023-05-21T05:54:35.563Z,64.14
2023-05-21T05:55:37.372Z,63.71
2023-05-21T05:56:39.187Z,63.46
2023-05-21T05:57:41.066Z,63.54
2023-05-21T05:58:43.250Z,63.60
2023-05-21T05:59:44.734Z,63.49
2023-05-21T06:00:46.832Z,63.65
2023-05-21T06:01:48.412Z,63.20
2023-05-21T06:02:50.075Z,62.90
2023-05-21T06:03:53.010Z,63.00
2023-05-21T06:04:54.525Z,63.12
2023-05-21T06:05:56.077Z,62.79
2023-05-21T06:06:57.714Z,62.23
2023-05-21T06:07:59.169Z,61.99
2023-05-21T06:09:01.354Z,61.85
2023-05-21T06:10:02.919Z,62.08
2023-05-21T06:11:04.498Z,61.84
2023-05-21T06:12:07.128Z,61.41
2023-05-21T06:13:08.608Z,61.48
2023-05-21T06:14:10.425Z,61.52
2023-05-21T06:15:11.976Z,61.52
2023-05-21T06:16:13.729Z,61.70
2023-05-21T06:17:17.283Z,61.80
2023-05-21T06:18:18.954Z,61.92
2023-05-21T06:19:21.116Z,61.33
2023-05-21T06:20:23.799Z,60.75
2023-05-21T06:21:25.297Z,60.44
2023-05-21T06:22:26.906Z,60.48
2023-05-21T06:23:28.515Z,60.80
2023-05-21T06:24:30.211Z,60.37
2023-05-21T06:25:32.005Z,60.51
2023-05-21T06:26:33.805Z,60.23
2023-05-21T06:27:35.328Z,60.35
2023-05-21T06:28:37.300Z,60.43
2023-05-21T06:29:40.827Z,60.30
2023-05-21T06:30:42.401Z,60.07
2023-05-21T06:31:44.569Z,60.06
2023-05-21T06:32:46.380Z,59.74
2023-05-21T06:33:49.907Z,60.04
2023-05-21T06:34:51.576Z,59.95
2023-05-21T06:35:53.524Z,59.99
2023-05-21T06:36:55.184Z,59.76
2023-05-21T06:37:56.670Z,59.58
2023-05-21T06:38:58.542Z,59.60
2023-05-21T06:40:00.066Z,59.44
2023-05-21T06:41:03.962Z,59.26
2023-05-21T06:42:05.832Z,59.27
2023-05-21T06:43:07.792Z,58.56
2023-05-21T06:44:10.000Z,58.55
2023-05-21T06:45:12.137Z,58.68
2023-05-21T06:46:13.790Z,58.83
2023-05-21T06:47:15.366Z,58.81
2023-05-21T06:48:19.773Z,58.59
2023-05-21T06:49:21.540Z,58.51
2023-05-21T06:50:24.096Z,58.22
2023-05-21T06:51:25.810Z,58.11
2023-05-21T06:52:27.397Z,58.66
2023-05-21T06:53:28.923Z,57.78
2023-05-21T06:54:30.886Z,57.87
2023-05-21T06:55:32.569Z,57.94
2023-05-21T06:56:34.071Z,58.17
2023-05-21T06:57:37.996Z,57.77
2023-05-21T06:58:39.511Z,57.58
2023-05-21T06:59:41.515Z,57.37
2023-05-21T07:00:43.194Z,57.23
2023-05-21T07:01:45.433Z,57.04
2023-05-21T07:02:47.584Z,56.53
2023-05-21T07:03:53.734Z,56.92
2023-05-21T07:04:57.445Z,56.92
2023-05-21T07:05:58.988Z,56.68
2023-05-21T07:07:00.698Z,56.30
2023-05-21T07:08:02.176Z,56.11
2023-05-21T07:09:04.234Z,56.10
2023-05-21T07:10:06.303Z,56.12
2023-05-21T07:11:07.833Z,56.53
2023-05-21T07:12:09.329Z,56.36
2023-05-21T07:13:11.046Z,56.49
2023-05-21T07:14:12.560Z,56.83
2023-05-21T07:15:14.161Z,56.20
2023-05-21T07:16:17.860Z,55.78
2023-05-21T07:17:19.545Z,55.93
2023-05-21T07:18:21.114Z,55.81
2023-05-21T07:19:22.659Z,55.51
2023-05-21T07:20:24.293Z,56.04
2023-05-21T07:21:26.041Z,56.29
2023-05-21T07:22:28.545Z,56.16
2023-05-21T07:23:30.131Z,56.29
2023-05-21T07:24:31.658Z,56.59
2023-05-21T07:25:33.171Z,56.02
2023-05-21T07:26:34.692Z,56.07
2023-05-21T07:27:36.225Z,56.04
2023-05-21T07:28:37.742Z,55.86
2023-05-21T07:29:39.294Z,56.46
2023-05-21T07:30:40.972Z,56.00
2023-05-21T07:31:42.520Z,56.03
2023-05-21T07:32:44.230Z,55.96
2023-05-21T07:33:45.974Z,55.93
2023-05-21T07:34:47.485Z,55.91
2023-05-21T07:35:49.111Z,55.63
2023-05-21T07:36:50.881Z,55.24
2023-05-21T07:37:52.424Z,55.72
2023-05-21T07:38:54.023Z,55.48
2023-05-21T07:39:58.769Z,55.17
2023-05-21T07:41:00.296Z,55.21
2023-05-21T07:42:01.827Z,55.44
2023-05-21T07:43:03.398Z,55.35
2023-05-21T07:44:04.997Z,55.11
2023-05-21T07:45:07.392Z,55.21
2023-05-21T07:46:09.382Z,55.17
2023-05-21T07:47:10.919Z,55.08
2023-05-21T07:48:12.438Z,55.21
2023-05-21T07:49:16.857Z,54.33
2023-05-21T07:50:18.719Z,54.56
2023-05-21T07:51:20.283Z,54.37
2023-05-21T07:52:22.248Z,54.45
2023-05-21T07:53:23.971Z,54.57
2023-05-21T07:54:25.655Z,53.94
2023-05-21T07:55:27.253Z,53.65
2023-05-21T07:56:29.485Z,53.56
2023-05-21T07:57:31.388Z,53.44
2023-05-21T07:58:35.342Z,53.27
2023-05-21T07:59:36.922Z,53.04
2023-05-21T08:00:46.979Z,53.25
2023-05-21T08:01:48.545Z,52.89
2023-05-21T08:02:50.370Z,53.20
2023-05-21T08:03:52.579Z,52.67
2023-05-21T08:04:55.250Z,52.38
2023-05-21T08:05:57.150Z,52.20
2023-05-21T08:06:58.841Z,52.41
2023-05-21T08:08:00.420Z,52.52
2023-05-21T08:09:02.078Z,52.39
2023-05-21T08:10:04.597Z,52.64
2023-05-21T08:11:06.283Z,52.46
2023-05-21T08:12:08.208Z,52.48
2023-05-21T08:13:11.610Z,52.69
2023-05-21T08:14:13.143Z,52.41
2023-05-21T08:15:14.659Z,52.32
2023-05-21T08:16:16.625Z,52.33
2023-05-21T08:17:18.360Z,52.53
2023-05-21T08:18:19.930Z,52.30
2023-05-21T08:19:21.684Z,52.25
2023-05-21T08:20:23.227Z,51.88
2023-05-21T08:21:24.766Z,51.84
2023-05-21T08:22:26.293Z,51.69
2023-05-21T08:23:27.852Z,51.61
2023-05-21T08:24:29.418Z,52.27
2023-05-21T08:25:31.660Z,51.95
2023-05-21T08:26:33.262Z,52.03
2023-05-21T08:27:34.827Z,52.28
2023-05-21T08:28:38.728Z,51.76
2023-05-21T08:29:40.594Z,51.77
2023-05-21T08:30:42.187Z,52.01
2023-05-21T08:31:43.781Z,52.34
2023-05-21T08:32:47.383Z,51.85
2023-05-21T08:33:53.018Z,51.94
2023-05-21T08:34:54.733Z,52.27
2023-05-21T08:35:56.390Z,52.14
2023-05-21T08:36:58.032Z,52.53
2023-05-21T08:37:59.649Z,52.34
2023-05-21T08:39:01.192Z,52.17
2023-05-21T08:40:04.188Z,52.37
2023-05-21T08:41:07.800Z,52.60
2023-05-21T08:43:02.896Z,52.36
2023-05-21T08:45:02.566Z,51.89
2023-05-21T08:50:08.872Z,51.48
2023-05-21T08:51:10.432Z,51.69
2023-05-21T08:52:35.053Z,51.79
2023-05-21T08:53:36.771Z,51.99
2023-05-21T08:54:39.891Z,51.96
2023-05-21T08:55:43.508Z,50.79
2023-05-21T08:56:49.830Z,51.21
2023-05-21T08:57:54.282Z,51.37
2023-05-21T08:58:59.513Z,51.68
2023-05-21T09:00:02.006Z,50.80
2023-05-21T09:01:04.832Z,50.98
2023-05-21T09:02:06.771Z,51.65
2023-05-21T09:03:11.661Z,51.14
2023-05-21T09:04:21.273Z,50.98
2023-05-21T09:05:24.197Z,50.97
2023-05-21T09:06:26.280Z,50.63
2023-05-21T09:07:29.157Z,50.96
2023-05-21T09:08:38.885Z,51.53
2023-05-21T09:09:49.612Z,51.05
2023-05-21T09:10:52.536Z,51.41
2023-05-21T09:11:54.371Z,51.49
2023-05-21T09:12:55.944Z,51.32
2023-05-21T09:13:59.376Z,51.20
2023-05-21T09:15:05.150Z,50.69
2023-05-21T09:16:07.301Z,50.75
2023-05-21T09:17:09.014Z,50.35
2023-05-21T09:18:10.950Z,50.04
2023-05-21T09:19:14.610Z,50.34
2023-05-21T09:20:30.488Z,50.05
2023-05-21T09:21:33.149Z,49.93
2023-05-21T09:22:35.618Z,49.87
2023-05-21T09:23:37.338Z,49.87
2023-05-21T09:24:39.319Z,49.58
2023-05-21T09:25:42.105Z,48.30
2023-05-21T09:26:43.961Z,48.85
2023-05-21T09:27:48.259Z,48.98
2023-05-21T09:28:51.540Z,48.87
2023-05-21T09:29:53.102Z,48.16
2023-05-21T09:31:03.338Z,48.37
2023-05-21T09:32:08.236Z,47.18
2023-05-21T09:33:14.732Z,47.07
2023-05-21T09:34:16.626Z,47.89
2023-05-21T09:35:18.183Z,47.15
2023-05-21T09:36:22.633Z,47.00
2023-05-21T09:37:27.399Z,46.99
2023-05-21T09:38:30.352Z,49.64
2023-05-21T09:39:31.987Z,46.07
2023-05-21T09:40:35.892Z,46.16
2023-05-21T09:41:38.222Z,46.20
2023-05-21T09:42:42.048Z,46.43
2023-05-21T09:43:44.554Z,46.75
2023-05-21T09:44:47.765Z,46.62
2023-05-21T09:45:54.200Z,46.86
2023-05-21T09:46:59.635Z,46.44
2023-05-21T09:48:01.665Z,47.06
2023-05-21T09:49:03.225Z,46.96
2023-05-21T09:50:05.829Z,47.07
2023-05-21T09:51:16.094Z,47.72
2023-05-21T09:52:28.667Z,47.49
2023-05-21T09:53:30.216Z,47.32
2023-05-21T09:54:33.597Z,47.79
2023-05-21T09:55:36.443Z,47.25
2023-05-21T09:56:39.127Z,47.32
2023-05-21T09:57:42.588Z,48.10
2023-05-21T09:58:44.254Z,47.86
2023-05-21T09:59:50.530Z,47.43
2023-05-21T10:00:52.723Z,47.26
2023-05-21T10:01:55.439Z,47.08
2023-05-21T10:02:57.751Z,47.77
2023-05-21T10:04:01.592Z,47.54
2023-05-21T10:05:08.992Z,47.56
2023-05-21T10:06:11.678Z,48.23
2023-05-21T10:07:13.920Z,48.12
2023-05-21T10:08:22.719Z,48.45
2023-05-21T10:09:24.945Z,48.04
2023-05-21T10:10:28.593Z,48.34
2023-05-21T10:11:31.951Z,47.57
2023-05-21T10:12:33.943Z,47.36
2023-05-21T10:13:41.575Z,47.53
2023-05-21T10:14:47.014Z,47.55
2023-05-21T10:15:54.479Z,47.88
2023-05-21T10:16:56.472Z,48.00
2023-05-21T10:17:59.724Z,48.31
2023-05-21T10:19:01.803Z,48.25
2023-05-21T10:20:05.466Z,48.35
2023-05-21T10:21:08.681Z,47.57
2023-05-21T10:22:10.837Z,48.14
2023-05-21T10:23:13.246Z,47.65
2023-05-21T10:24:15.776Z,47.42
2023-05-21T10:25:17.664Z,48.18
2023-05-21T10:26:21.622Z,47.38
2023-05-21T10:27:23.619Z,47.42
2023-05-21T10:28:25.837Z,48.02
2023-05-21T10:29:28.234Z,48.15
2023-05-21T10:30:30.155Z,48.44
2023-05-21T10:31:33.065Z,48.31
2023-05-21T10:32:35.677Z,48.19
2023-05-21T10:33:38.479Z,48.22
2023-05-21T10:34:40.724Z,48.00
2023-05-21T10:35:42.881Z,47.93
2023-05-21T10:36:45.978Z,47.77
2023-05-21T10:37:49.540Z,47.71
2023-05-21T10:38:51.421Z,47.72
2023-05-21T10:39:54.189Z,47.39
2023-05-21T10:40:55.918Z,47.32
2023-05-21T10:42:17.715Z,47.92
2023-05-21T10:43:31.225Z,48.52
2023-05-21T10:44:51.330Z,47.92
2023-05-21T10:46:37.541Z,47.88
2023-05-21T10:48:03.344Z,47.48
2023-05-21T10:49:38.266Z,47.03
2023-05-21T10:51:08.247Z,46.73
2023-05-21T10:52:33.061Z,47.08
2023-05-21T10:53:47.075Z,45.68
2023-05-21T10:55:02.051Z,45.16
2023-05-21T10:56:09.636Z,44.95
2023-05-21T10:57:59.313Z,45.47
2023-05-21T10:59:23.146Z,45.90
2023-05-21T11:00:26.933Z,45.75
2023-05-21T11:01:34.125Z,46.59
2023-05-21T11:02:36.836Z,45.50
2023-05-21T11:03:38.913Z,44.66
2023-05-21T11:04:43.283Z,44.60
2023-05-21T11:05:55.466Z,44.83
2023-05-21T11:06:59.477Z,45.46
2023-05-21T11:08:02.393Z,45.34
2023-05-21T11:09:14.113Z,45.60
2023-05-21T11:10:39.251Z,45.53
2023-05-21T11:11:52.242Z,45.02
2023-05-21T11:13:27.084Z,44.63
2023-05-21T11:14:43.050Z,45.02
2023-05-21T11:15:59.801Z,45.02
2023-05-21T11:17:09.162Z,45.30
2023-05-21T11:18:11.902Z,45.49
2023-05-21T11:19:17.657Z,45.80
2023-05-21T11:20:22.794Z,45.92
2023-05-21T11:21:30.555Z,45.72
2023-05-21T11:22:35.464Z,44.28
2023-05-21T11:24:03.184Z,44.22
2023-05-21T11:25:05.956Z,44.46
2023-05-21T11:26:07.430Z,44.24
2023-05-21T11:27:09.690Z,44.59
2023-05-21T11:28:11.507Z,44.93
2023-05-21T11:29:13.151Z,44.74
2023-05-21T11:30:17.003Z,44.29
2023-05-21T11:31:40.024Z,43.46
2023-05-21T11:33:07.830Z,43.28
2023-05-21T11:34:19.739Z,43.42
2023-05-21T11:35:22.551Z,42.69
2023-05-21T11:36:23.975Z,42.22
2023-05-21T11:37:41.168Z,42.18
2023-05-21T11:38:42.638Z,42.41
2023-05-21T11:39:58.579Z,42.78
2023-05-21T11:41:04.155Z,41.38
2023-05-21T11:42:06.099Z,41.74
2023-05-21T11:44:45.627Z,42.05
2023-05-21T11:45:47.933Z,41.56
2023-05-21T11:46:51.811Z,41.11
2023-05-21T11:47:54.874Z,40.68
2023-05-21T11:48:56.903Z,41.04
2023-05-21T11:50:01.047Z,40.57
2023-05-21T11:51:05.782Z,39.73
2023-05-21T11:52:09.303Z,39.46
2023-05-21T11:53:14.915Z,38.75
2023-05-21T11:54:17.919Z,38.85
2023-05-21T11:55:26.805Z,37.93
2023-05-21T11:56:28.788Z,37.88
2023-05-21T11:57:33.493Z,37.80
2023-05-21T11:58:38.239Z,37.60
2023-05-21T11:59:39.764Z,37.59
2023-05-21T12:00:41.505Z,37.53
2023-05-21T12:01:44.261Z,37.28
2023-05-21T12:02:47.118Z,36.74
2023-05-21T12:03:51.685Z,37.10
2023-05-21T12:05:00.318Z,36.86
2023-05-21T12:06:06.675Z,37.13
2023-05-21T12:07:09.832Z,36.93
2023-05-21T12:08:11.394Z,35.16
2023-05-21T12:09:13.948Z,35.04
2023-05-21T12:10:15.790Z,34.99
2023-05-21T12:11:27.478Z,34.36
2023-05-21T12:12:41.782Z,34.74
2023-05-21T12:14:03.186Z,32.44
2023-05-21T12:15:07.355Z,31.13
2023-05-21T12:16:09.038Z,31.56
2023-05-21T12:17:13.518Z,31.18
2023-05-21T12:18:16.980Z,31.87
2023-05-21T12:19:19.260Z,31.31
2023-05-21T12:20:21.235Z,30.77
2023-05-21T12:21:31.865Z,31.36
2023-05-21T12:22:33.464Z,31.94
2023-05-21T12:23:36.475Z,31.66
2023-05-21T12:24:41.058Z,31.61
2023-05-21T12:25:42.626Z,30.34
2023-05-21T12:26:48.165Z,30.85
2023-05-21T12:27:53.016Z,30.49
2023-05-21T12:28:56.087Z,31.45
2023-05-21T12:29:58.076Z,30.81
2023-05-21T12:30:59.829Z,31.01
2023-05-21T12:32:02.744Z,29.80
2023-05-21T12:33:04.738Z,30.22
2023-05-21T12:34:08.268Z,31.23
2023-05-21T12:35:20.085Z,31.79
2023-05-21T12:36:34.796Z,33.35
2023-05-21T12:37:36.392Z,35.37
2023-05-21T12:38:38.117Z,33.46
2023-05-21T12:39:50.293Z,33.44
2023-05-21T12:40:51.874Z,34.16
2023-05-21T12:41:56.501Z,33.64
2023-05-21T12:42:58.371Z,33.06
2023-05-21T12:44:00.771Z,34.07
2023-05-21T12:45:11.830Z,34.32
2023-05-21T12:46:17.774Z,34.00
2023-05-21T12:47:19.672Z,33.40
2023-05-21T12:48:21.760Z,33.81
2023-05-21T12:49:48.076Z,34.20
2023-05-21T12:50:52.135Z,34.75
2023-05-21T12:51:56.798Z,34.32
2023-05-21T12:53:01.128Z,31.57
2023-05-21T12:54:02.892Z,31.65
2023-05-21T12:55:05.531Z,31.21
2023-05-21T12:56:16.644Z,31.27
2023-05-21T12:57:28.442Z,34.34
2023-05-21T12:58:33.895Z,31.36
2023-05-21T12:59:48.199Z,31.03
2023-05-21T13:00:49.677Z,30.34
2023-05-21T13:01:53.193Z,29.43
2023-05-21T13:03:00.100Z,29.54
2023-05-21T13:04:04.871Z,28.59
2023-05-21T13:05:09.194Z,29.12
2023-05-21T13:06:10.796Z,29.30
2023-05-21T13:07:12.565Z,29.50
2023-05-21T13:08:15.930Z,29.55
2023-05-21T13:09:17.491Z,30.39
2023-05-21T13:10:21.911Z,30.48
2023-05-21T13:11:23.452Z,30.69
2023-05-21T13:12:29.716Z,31.26
2023-05-21T13:13:31.733Z,30.48
2023-05-21T13:14:33.450Z,30.04
2023-05-21T13:15:35.026Z,30.09
2023-05-21T13:16:36.763Z,29.06
2023-05-21T13:17:38.314Z,29.52
2023-05-21T13:18:40.364Z,29.82
2023-05-21T13:19:42.207Z,29.94
2023-05-21T13:20:43.680Z,29.04
2023-05-21T13:21:45.323Z,29.03
2023-05-21T13:22:49.407Z,29.15
2023-05-21T13:23:50.943Z,29.49
2023-05-21T13:24:52.490Z,29.30
2023-05-21T13:25:53.995Z,29.52
2023-05-21T13:26:55.604Z,29.57
2023-05-21T13:27:57.984Z,29.21
2023-05-21T13:28:59.575Z,29.85
2023-05-21T13:30:02.049Z,29.49
2023-05-21T13:31:03.704Z,29.14
2023-05-21T13:32:05.816Z,29.39
2023-05-21T13:33:10.280Z,28.01
2023-05-21T13:34:12.718Z,27.79
2023-05-21T13:35:16.425Z,28.17
2023-05-21T13:36:18.212Z,28.97
2023-05-21T13:37:22.863Z,27.14
2023-05-21T13:38:24.398Z,27.04
2023-05-21T13:39:27.670Z,27.90
2023-05-21T13:40:29.289Z,27.76
2023-05-21T13:41:31.309Z,28.40
2023-05-21T13:42:34.062Z,28.95
2023-05-21T13:43:35.545Z,27.81
2023-05-21T13:44:37.325Z,27.80
2023-05-21T13:45:38.923Z,27.83